This is the latest recevied weather packets stored in our database for station/object VK6HGR-1. If no packets are shown the sender has not sent any weather packets the latest 10 day(s).
| Time | Temp. | Humidity | Pressure | Rain* | Wind** | Luminosity | Snow |
|---|---|---|---|---|---|---|---|
| 1777977911 | 20° C | 59% | 1022.9 hPa | - | - | - | - |
| 1777977011 | 20° C | 58% | 1022.7 hPa | - | - | - | - |
| 1777976110 | 20.56° C | 58% | 1022.5 hPa | - | - | - | - |
| 1777975212 | 21.11° C | 58% | 1022.4 hPa | - | - | - | - |
| 1777974311 | 21.11° C | 57% | 1022.3 hPa | - | - | - | - |
| 1777973410 | 21.67° C | 56% | 1022.1 hPa | - | - | - | - |
| 1777972510 | 22.22° C | 54% | 1022 hPa | - | - | - | - |
| 1777971612 | 22.78° C | 52% | 1021.9 hPa | - | - | - | - |
| 1777970712 | 22.78° C | 51% | 1021.8 hPa | - | - | - | - |
| 1777969811 | 23.33° C | 49% | 1021.7 hPa | - | - | - | - |
| 1777968911 | 23.89° C | 47% | 1021.7 hPa | - | - | - | - |
| 1777968011 | 23.89° C | 43% | 1021.7 hPa | - | - | - | - |
| 1777967111 | 24.44° C | 43% | 1021.6 hPa | - | - | - | - |
| 1777966211 | 24.44° C | 43% | 1021.6 hPa | - | - | - | - |
| 1777965312 | 24.44° C | 42% | 1021.5 hPa | - | - | - | - |
| 1777964410 | 24.44° C | 42% | 1021.6 hPa | - | - | - | - |
| 1777963511 | 24.44° C | 42% | 1021.6 hPa | - | - | - | - |
| 1777962614 | 24.44° C | 43% | 1021.6 hPa | - | - | - | - |
| 1777961712 | 24.44° C | 42% | 1021.6 hPa | - | - | - | - |
| 1777960814 | 24.44° C | 43% | 1021.7 hPa | - | - | - | - |
| 1777959910 | 24.44° C | 42% | 1021.8 hPa | - | - | - | - |
| 1777959011 | 25° C | 42% | 1021.8 hPa | - | - | - | - |
| 1777958115 | 24.44° C | 43% | 1021.9 hPa | - | - | - | - |
| 1777957215 | 24.44° C | 43% | 1022.2 hPa | - | - | - | - |
| 1777956313 | 24.44° C | 44% | 1022.4 hPa | - | - | - | - |
* Rain since midnight (hover to see other rain measurements)
** Current wind speed in m/s (hover to see current wind gust speed)